Time;durP1;ratioP1;P1;durP2;ratioP2;P2;SDS_P1;SDS_P2;PMS_P1;PMS_P2;Temp;Humidity;BMP_temperature;BMP_pressure;BME280_temperature;BME280_humidity;BME280_pressure;Samples;Min_cycle;Max_cycle;Signal;HPM_P1;HPM_P2
2024/02/29 00:00:57;;;;;;;;;13.33;10.33;;;;;14.14;100.00;101201.63;2107371;27;46573;-51
2024/02/29 00:01:58;;;;;;;;;11.00;11.00;;;;;14.15;100.00;101187.34;2106467;27;46847;-51
2024/02/29 00:02:58;;;;;;;;;11.00;10.33;;;;;14.20;100.00;101182.75;2107106;27;46340;-48
2024/02/29 00:03:58;;;;;;;;;9.67;9.67;;;;;14.18;100.00;101181.03;2107566;27;46260;-53
2024/02/29 00:04:59;;;;;;;;;11.67;9.67;;;;;14.26;100.00;101190.59;2107984;27;46843;-51
2024/02/29 00:05:59;;;;;;;;;9.00;9.00;;;;;14.24;100.00;101192.44;2107130;27;46614;-52
2024/02/29 00:07:00;;;;;;;;;8.00;8.00;;;;;14.23;100.00;101181.75;2107737;27;46350;-51
2024/02/29 00:08:01;;;;;;;;;10.33;9.33;;;;;14.13;100.00;101192.75;2106965;27;47734;-52
2024/02/29 00:09:02;;;;;;;;;11.00;7.75;;;;;14.13;100.00;101187.41;2106172;27;46477;-53
2024/02/29 00:10:03;;;;;;;;;13.25;11.00;;;;;14.14;100.00;101191.81;2107289;27;46447;-53
2024/02/29 00:11:05;;;;;;;;;11.00;10.33;;;;;14.17;100.00;101181.97;2107053;27;46953;-52
2024/02/29 00:12:06;;;;;;;;;10.00;9.00;;;;;14.19;100.00;101185.47;2104607;27;46469;-53
2024/02/29 00:13:06;;;;;;;;;9.00;9.00;;;;;14.16;100.00;101181.09;2108188;27;45750;-51
2024/02/29 00:14:06;;;;;;;;;10.00;8.33;;;;;14.15;100.00;101182.00;2107592;27;46716;-49
2024/02/29 00:15:07;;;;;;;;;13.00;11.00;;;;;14.16;100.00;101175.75;2106987;27;46650;-52
2024/02/29 00:16:08;;;;;;;;;10.33;10.33;;;;;14.17;100.00;101177.50;2107602;27;46805;-52
2024/02/29 00:17:08;;;;;;;;;13.33;11.67;;;;;14.13;100.00;101174.06;2106769;27;46556;-51
2024/02/29 00:18:08;;;;;;;;;10.33;10.33;;;;;14.12;100.00;101174.09;2098493;28;46338;-49
2024/02/29 00:19:09;;;;;;;;;10.00;10.00;;;;;14.21;100.00;101173.81;2097863;28;46622;-53
2024/02/29 00:20:10;;;;;;;;;10.00;8.75;;;;;14.20;100.00;101169.38;2107005;27;46485;-53
2024/02/29 00:21:11;;;;;;;;;10.25;8.75;;;;;14.12;100.00;101168.75;2107177;27;46303;-53
2024/02/29 00:22:11;;;;;;;;;10.67;10.00;;;;;14.14;100.00;101166.91;2098249;28;46284;-51
2024/02/29 00:23:11;;;;;;;;;9.33;8.67;;;;;14.16;100.00;101167.75;2098732;28;45851;-53
2024/02/29 00:24:12;;;;;;;;;10.33;9.00;;;;;14.13;100.00;101168.72;2107828;27;46234;-50
2024/02/29 00:25:12;;;;;;;;;9.67;7.67;;;;;14.16;100.00;101170.41;2106854;27;46984;-52
2024/02/29 00:26:15;;;;;;;;;11.67;9.67;;;;;14.10;100.00;101166.13;2107407;27;46640;-51
2024/02/29 00:27:16;;;;;;;;;11.00;9.75;;;;;14.17;100.00;101163.28;2105308;27;46858;-52
2024/02/29 00:28:17;;;;;;;;;12.50;10.75;;;;;14.08;100.00;101159.94;2107030;27;46360;-54
2024/02/29 00:29:17;;;;;;;;;8.33;8.00;;;;;14.08;100.00;101164.41;2106993;27;46296;-53
2024/02/29 00:30:18;;;;;;;;;8.67;8.67;;;;;14.08;100.00;101151.94;2101633;28;46461;-54
2024/02/29 00:31:18;;;;;;;;;9.00;7.67;;;;;14.08;100.00;101164.41;2100569;28;46762;-53
2024/02/29 00:32:19;;;;;;;;;8.33;8.33;;;;;14.22;100.00;101146.19;2108812;27;46715;-53
2024/02/29 00:33:19;;;;;;;;;9.00;7.00;;;;;14.23;100.00;101141.72;2112241;27;46677;-51
2024/02/29 00:34:19;;;;;;;;;10.00;10.00;;;;;14.24;100.00;101148.84;2111473;27;46898;-51
2024/02/29 00:35:20;;;;;;;;;10.67;8.67;;;;;14.22;100.00;101140.84;2110950;27;45910;-53
2024/02/29 00:36:20;;;;;;;;;9.33;9.33;;;;;14.23;100.00;101149.72;2111275;27;46196;-52
2024/02/29 00:37:20;;;;;;;;;9.00;9.00;;;;;14.23;100.00;101131.94;2110974;27;46355;-53
2024/02/29 00:38:21;;;;;;;;;9.33;7.67;;;;;14.22;100.00;101138.19;2112405;27;45968;-54
2024/02/29 00:39:21;;;;;;;;;8.67;8.67;;;;;14.18;100.00;101131.19;2110042;27;46357;-52
2024/02/29 00:40:21;;;;;;;;;8.00;8.00;;;;;14.31;100.00;101134.38;2110768;27;46264;-51
2024/02/29 00:41:22;;;;;;;;;7.67;7.67;;;;;14.31;100.00;101132.56;2112168;27;46332;-54
2024/02/29 00:42:22;;;;;;;;;9.00;9.00;;;;;14.32;100.00;101128.09;2098069;28;46204;-52
2024/02/29 00:43:23;;;;;;;;;9.67;9.67;;;;;14.30;100.00;101124.63;2098566;28;46833;-52
2024/02/29 00:44:23;;;;;;;;;5.00;5.00;;;;;14.28;100.00;101129.13;2111799;27;46355;-50
2024/02/29 00:45:23;;;;;;;;;9.67;9.00;;;;;14.13;100.00;101123.34;2109571;27;46323;-50
2024/02/29 00:46:24;;;;;;;;;10.67;9.33;;;;;14.11;100.00;101125.19;2112073;27;46399;-51
2024/02/29 00:47:24;;;;;;;;;10.00;10.00;;;;;14.11;100.00;101121.66;2110651;27;46632;-50
2024/02/29 00:48:24;;;;;;;;;8.33;8.00;;;;;14.11;100.00;101121.66;2111140;27;46709;-53
2024/02/29 00:49:25;;;;;;;;;12.00;10.00;;;;;14.12;100.00;101118.94;2112510;27;46097;-51
2024/02/29 00:50:26;;;;;;;;;9.00;9.00;;;;;14.18;100.00;101117.84;2111608;27;46297;-52
2024/02/29 00:51:26;;;;;;;;;9.00;9.00;;;;;14.13;100.00;101119.78;2110857;27;46183;-53
2024/02/29 00:52:26;;;;;;;;;9.33;8.33;;;;;14.11;100.00;101118.97;2111892;27;46121;-53
2024/02/29 00:53:27;;;;;;;;;7.33;7.33;;;;;14.12;100.00;101107.38;2110352;27;46709;-53
2024/02/29 00:54:27;;;;;;;;;8.00;8.00;;;;;14.16;100.00;101102.81;2112380;27;46632;-53
2024/02/29 00:55:27;;;;;;;;;7.00;7.00;;;;;14.11;100.00;101111.84;2111167;27;47052;-54
2024/02/29 00:56:28;;;;;;;;;9.00;7.33;;;;;14.14;100.00;101101.06;2111545;27;46331;-52
2024/02/29 00:57:28;;;;;;;;;7.00;7.00;;;;;14.14;100.00;101101.06;2112348;27;46697;-54
2024/02/29 00:58:28;;;;;;;;;6.67;6.67;;;;;14.20;100.00;101101.78;2111354;27;46575;-53
2024/02/29 00:59:28;;;;;;;;;8.00;8.00;;;;;14.23;100.00;101102.59;2110683;27;46448;-52
2024/02/29 01:00:29;;;;;;;;;9.00;9.00;;;;;14.21;100.00;101107.06;2109413;27;46149;-54
2024/02/29 01:01:29;;;;;;;;;6.33;6.00;;;;;14.24;100.00;101099.00;2110679;27;46442;-55
2024/02/29 01:02:29;;;;;;;;;7.00;7.00;;;;;14.21;100.00;101088.38;2093445;28;45027;-53
2024/02/29 01:03:30;;;;;;;;;7.67;7.67;;;;;14.24;100.00;101088.31;2093562;28;46918;-52
2024/02/29 01:04:30;;;;;;;;;9.00;7.67;;;;;14.25;100.00;101089.19;2093077;28;46246;-54
2024/02/29 01:05:30;;;;;;;;;10.67;9.00;;;;;14.25;100.00;101087.41;2093710;28;45810;-54
2024/02/29 01:06:31;;;;;;;;;9.33;8.67;;;;;14.26;100.00;101082.94;2093374;28;46301;-53
2024/02/29 01:07:31;;;;;;;;;9.00;9.00;;;;;14.25;100.00;101087.41;2093039;28;46236;-55
2024/02/29 01:08:31;;;;;;;;;9.00;9.00;;;;;14.25;100.00;101087.41;2093589;28;46945;-53
2024/02/29 01:09:31;;;;;;;;;6.33;6.33;;;;;14.25;100.00;101083.84;2093620;28;46537;-54
2024/02/29 01:10:32;;;;;;;;;8.00;8.00;;;;;14.26;100.00;101078.47;2093695;28;46724;-54
2024/02/29 01:11:32;;;;;;;;;10.00;8.00;;;;;14.25;100.00;101076.72;2093350;28;46363;-54
2024/02/29 01:12:39;;;;;;;;;6.00;6.00;;;;;14.23;100.00;101081.25;2093259;28;46582;-53
2024/02/29 01:13:39;;;;;;;;;7.25;7.25;;;;;14.24;100.00;101072.31;2093954;28;46351;-53
2024/02/29 01:14:39;;;;;;;;;7.00;6.67;;;;;14.26;100.00;101077.59;2092427;28;45918;-53
2024/02/29 01:15:40;;;;;;;;;7.00;7.00;;;;;14.28;100.00;101084.63;2093539;28;46809;-54
2024/02/29 01:16:40;;;;;;;;;9.33;8.33;;;;;14.28;100.00;101071.28;2091916;28;46599;-53
2024/02/29 01:17:41;;;;;;;;;6.00;6.00;;;;;14.29;100.00;101078.34;2093448;28;46065;-54
2024/02/29 01:18:42;;;;;;;;;8.25;7.00;;;;;14.28;100.00;101079.28;2093507;28;45868;-51
2024/02/29 01:19:42;;;;;;;;;8.00;8.00;;;;;14.28;100.00;101073.06;2093536;28;46622;-51
2024/02/29 01:20:43;;;;;;;;;9.00;7.00;;;;;14.28;100.00;101065.06;2092400;28;46242;-53
2024/02/29 01:21:43;;;;;;;;;7.33;7.33;;;;;14.25;100.00;101070.50;2094043;28;46759;-51
2024/02/29 01:22:43;;;;;;;;;9.00;8.00;;;;;14.27;100.00;101072.19;2094070;28;46431;-53
2024/02/29 01:23:44;;;;;;;;;7.67;7.33;;;;;14.26;100.00;101065.13;2093918;28;46577;-52
2024/02/29 01:24:44;;;;;;;;;5.67;5.67;;;;;14.27;100.00;101066.00;2093504;28;46589;-53
2024/02/29 01:25:44;;;;;;;;;7.67;7.67;;;;;14.27;100.00;101064.19;2073025;28;45877;-53
2024/02/29 01:26:45;;;;;;;;;7.00;7.00;;;;;14.27;100.00;101063.31;2073334;28;46416;-52
2024/02/29 01:27:45;;;;;;;;;8.33;8.00;;;;;14.28;100.00;101054.38;2072425;28;46407;-54
2024/02/29 01:28:45;;;;;;;;;8.00;8.00;;;;;14.29;100.00;101050.78;2073703;28;47015;-52
2024/02/29 01:29:46;;;;;;;;;8.00;7.00;;;;;14.27;100.00;101050.84;2073576;28;46490;-51
2024/02/29 01:30:46;;;;;;;;;9.00;8.00;;;;;14.23;100.00;101050.97;2072969;28;46741;-53
2024/02/29 01:31:46;;;;;;;;;9.33;8.67;;;;;14.27;100.00;101057.97;2072785;28;46812;-55
2024/02/29 01:32:47;;;;;;;;;7.00;7.00;;;;;14.28;100.00;101052.59;2072271;28;45087;-54
2024/02/29 01:33:47;;;;;;;;;7.00;6.00;;;;;14.20;100.00;101051.94;2074221;28;47575;-53
2024/02/29 01:34:48;;;;;;;;;9.33;8.00;;;;;14.27;100.00;101047.31;2087795;28;45314;-53
2024/02/29 01:35:48;;;;;;;;;10.00;8.00;;;;;14.26;100.00;101046.44;2089752;28;46212;-53
2024/02/29 01:36:48;;;;;;;;;9.00;8.00;;;;;14.27;100.00;101048.19;2065465;28;46261;-52
2024/02/29 01:37:49;;;;;;;;;8.00;8.00;;;;;14.25;100.00;101041.16;2065102;28;46093;-54
2024/02/29 01:38:49;;;;;;;;;8.00;8.00;;;;;14.24;100.00;101037.59;2072554;28;46616;-53
2024/02/29 01:39:50;;;;;;;;;8.00;8.00;;;;;14.22;100.00;101038.53;2072911;28;46495;-54
2024/02/29 01:40:50;;;;;;;;;8.00;8.00;;;;;14.23;100.00;101032.28;2072875;28;46296;-54
2024/02/29 01:41:50;;;;;;;;;8.33;8.00;;;;;14.19;100.00;101033.31;2065290;28;46785;-52
2024/02/29 01:42:51;;;;;;;;;9.00;9.00;;;;;14.20;100.00;101037.72;2065057;28;45877;-53
2024/02/29 01:43:53;;;;;;;;;7.00;7.00;;;;;14.19;100.00;101025.31;2072583;28;46548;-52
2024/02/29 01:44:55;;;;;;;;;7.75;7.50;;;;;14.22;100.00;101028.75;2073211;28;46769;-52
2024/02/29 01:46:12;;;;;;;;;8.75;8.75;;;;;14.19;100.00;101023.50;2073340;28;46923;-52
2024/02/29 01:47:13;;;;;;;;;7.00;6.00;;;;;14.19;100.00;101019.97;2072617;28;46554;-53
2024/02/29 01:48:14;;;;;;;;;7.00;7.00;;;;;14.20;100.00;101021.72;2072594;28;46291;-55
2024/02/29 01:49:16;;;;;;;;;7.25;7.00;;;;;14.20;100.00;101027.91;2073223;28;46830;-54
2024/02/29 01:50:16;;;;;;;;;10.50;9.00;;;;;14.19;100.00;101015.50;2073154;28;46968;-53
2024/02/29 01:51:18;;;;;;;;;7.33;6.67;;;;;14.18;100.00;101010.22;2072427;28;46608;-54
2024/02/29 01:52:20;;;;;;;;;7.00;7.00;;;;;14.19;100.00;101022.63;2075148;28;46220;-55
2024/02/29 01:53:20;;;;;;;;;7.25;6.50;;;;;14.22;100.00;101012.72;2074698;28;46481;-51
2024/02/29 01:54:20;;;;;;;;;6.00;6.00;;;;;14.21;100.00;101010.97;2074753;28;46557;-54
2024/02/29 01:55:21;;;;;;;;;7.00;6.67;;;;;14.20;100.00;101008.38;2074644;28;46576;-54
2024/02/29 01:56:22;;;;;;;;;6.00;6.00;;;;;14.16;100.00;101006.72;2074675;28;47076;-51
2024/02/29 01:57:23;;;;;;;;;7.00;6.00;;;;;14.12;100.00;101011.28;2077776;28;46816;-54
2024/02/29 01:58:23;;;;;;;;;6.00;6.00;;;;;14.09;100.00;101009.56;2082708;28;45932;-50
2024/02/29 01:59:25;;;;;;;;;10.00;8.00;;;;;14.10;100.00;101008.69;2083031;28;46779;-51
2024/02/29 02:00:26;;;;;;;;;6.25;5.25;;;;;14.08;100.00;101002.50;2082733;28;46033;-52
2024/02/29 02:01:27;;;;;;;;;7.33;7.33;;;;;14.26;100.00;101005.50;2083161;28;46696;-52
2024/02/29 02:02:27;;;;;;;;;7.25;6.50;;;;;14.27;100.00;100997.44;2082040;28;46580;-50
2024/02/29 02:03:28;;;;;;;;;7.00;7.00;;;;;14.31;100.00;101001.75;2065659;28;46249;-52
2024/02/29 02:04:28;;;;;;;;;7.00;7.00;;;;;14.38;100.00;100995.31;2066494;28;46529;-52
2024/02/29 02:05:28;;;;;;;;;5.33;5.33;;;;;14.40;100.00;100996.13;2082617;28;46840;-52
2024/02/29 02:06:29;;;;;;;;;7.33;6.00;;;;;14.40;100.00;100996.13;2081790;28;46494;-51
2024/02/29 02:07:29;;;;;;;;;6.67;6.00;;;;;14.39;100.00;100986.38;2082405;28;46079;-53
2024/02/29 02:08:32;;;;;;;;;5.00;5.00;;;;;14.41;100.00;100980.97;2075155;28;46936;-52
2024/02/29 02:09:34;;;;;;;;;8.25;8.25;;;;;14.41;100.00;100987.19;2073421;28;46476;-51
2024/02/29 02:10:35;;;;;;;;;7.50;5.50;;;;;14.43;100.00;100987.13;2090932;28;46410;-53
2024/02/29 02:11:35;;;;;;;;;9.00;8.00;;;;;14.42;100.00;100974.72;2091993;28;46308;-51
2024/02/29 02:12:36;;;;;;;;;8.00;6.67;;;;;14.42;100.00;100975.59;2082399;28;46402;-48
2024/02/29 02:13:36;;;;;;;;;8.00;7.00;;;;;14.45;100.00;100971.09;2091007;28;46324;-50
2024/02/29 02:14:38;;;;;;;;;10.33;8.33;;;;;14.46;100.00;100970.16;2100424;28;46999;-50
2024/02/29 02:15:40;;;;;;;;;8.25;8.25;;;;;14.45;100.00;100974.63;2100895;28;46833;-52
2024/02/29 02:16:40;;;;;;;;;7.50;7.50;;;;;14.46;100.00;100968.38;2100286;28;46110;-53
2024/02/29 02:17:41;;;;;;;;;6.00;6.00;;;;;14.48;100.00;100970.97;2100288;28;46149;-52
2024/02/29 02:18:42;;;;;;;;;6.75;6.50;;;;;14.41;100.00;100965.81;2100545;28;46691;-53
2024/02/29 02:19:43;;;;;;;;;9.67;8.00;;;;;14.42;100.00;100967.56;2100141;28;46281;-51
2024/02/29 02:20:44;;;;;;;;;7.00;5.50;;;;;14.41;100.00;100964.97;2081940;28;46409;-52
2024/02/29 02:21:44;;;;;;;;;8.00;8.00;;;;;14.41;100.00;100973.84;2082491;28;46526;-50
2024/02/29 02:22:45;;;;;;;;;8.00;8.00;;;;;14.34;100.00;100969.63;2100838;28;46262;-52
2024/02/29 02:23:45;;;;;;;;;8.33;8.33;;;;;14.30;100.00;100965.31;2099806;28;46911;-52
2024/02/29 02:24:45;;;;;;;;;8.67;8.67;;;;;14.31;100.00;100961.72;2100762;28;46461;-54
2024/02/29 02:25:46;;;;;;;;;8.00;8.00;;;;;14.31;100.00;100958.16;2100426;28;46404;-52
2024/02/29 02:26:46;;;;;;;;;8.33;8.00;;;;;14.33;100.00;100959.00;2097976;28;46081;-52
2024/02/29 02:27:47;;;;;;;;;8.33;8.00;;;;;14.32;100.00;100954.56;2100117;28;46559;-54
2024/02/29 02:28:47;;;;;;;;;6.00;6.00;;;;;14.41;100.00;100952.47;2099848;28;46789;-52
2024/02/29 02:29:47;;;;;;;;;8.00;7.67;;;;;14.40;100.00;100949.88;2100237;28;46691;-54
2024/02/29 02:30:47;;;;;;;;;8.00;8.00;;;;;14.45;100.00;100953.28;2099769;28;46404;-53
2024/02/29 02:31:48;;;;;;;;;4.00;3.67;;;;;14.43;100.00;100947.94;2099683;28;46303;-51
2024/02/29 02:32:48;;;;;;;;;6.00;6.00;;;;;14.44;100.00;100954.19;2107307;27;46121;-53
2024/02/29 02:33:48;;;;;;;;;7.00;7.00;;;;;14.45;100.00;100947.06;2107964;27;46237;-52
2024/02/29 02:34:49;;;;;;;;;8.00;8.00;;;;;14.45;100.00;100941.72;2107735;27;46284;-54
2024/02/29 02:35:49;;;;;;;;;8.67;7.33;;;;;14.43;100.00;100942.63;2108538;27;45758;-50
2024/02/29 02:36:49;;;;;;;;;8.33;7.67;;;;;14.45;100.00;100947.94;2108713;27;46528;-52
2024/02/29 02:37:50;;;;;;;;;6.00;6.00;;;;;14.43;100.00;100942.63;2107899;27;46593;-51
2024/02/29 02:38:50;;;;;;;;;5.67;5.00;;;;;14.36;100.00;100935.75;2107404;27;46184;-53
2024/02/29 02:39:51;;;;;;;;;10.00;8.00;;;;;14.34;100.00;100937.56;2108086;27;46766;-54
2024/02/29 02:40:51;;;;;;;;;6.67;6.00;;;;;14.36;100.00;100933.09;2108015;27;46879;-53
2024/02/29 02:41:51;;;;;;;;;10.00;8.33;;;;;14.36;100.00;100932.22;2107588;27;46433;-52
2024/02/29 02:42:52;;;;;;;;;8.00;8.00;;;;;14.37;100.00;100928.63;2108238;27;46235;-52
2024/02/29 02:43:52;;;;;;;;;8.67;7.33;;;;;14.34;100.00;100928.69;2107681;27;46552;-51
2024/02/29 02:44:52;;;;;;;;;8.00;8.00;;;;;14.30;100.00;100927.06;2107044;27;46547;-51
2024/02/29 02:45:53;;;;;;;;;8.67;8.00;;;;;14.21;100.00;100925.56;2108301;27;46458;-53
2024/02/29 02:46:53;;;;;;;;;7.00;7.00;;;;;14.22;100.00;100924.63;2099523;28;46915;-51
2024/02/29 02:47:54;;;;;;;;;7.00;6.00;;;;;14.22;100.00;100916.63;2102425;28;46183;-53
2024/02/29 02:48:55;;;;;;;;;8.25;6.25;;;;;14.24;100.00;100916.59;2111544;27;46680;-53
2024/02/29 02:49:55;;;;;;;;;6.33;6.33;;;;;14.23;100.00;100909.50;2108153;27;46584;-50
2024/02/29 02:50:55;;;;;;;;;7.67;7.00;;;;;14.24;100.00;100911.28;2108562;27;46449;-51
2024/02/29 02:51:56;;;;;;;;;10.00;7.00;;;;;14.25;100.00;100907.66;2107534;27;47513;-52
2024/02/29 02:52:56;;;;;;;;;8.00;8.00;;;;;14.28;100.00;100900.41;2107935;27;46626;-51
2024/02/29 02:53:57;;;;;;;;;7.67;7.67;;;;;14.32;100.00;100895.84;2108179;27;46253;-49
2024/02/29 02:54:58;;;;;;;;;8.75;7.25;;;;;14.31;100.00;100897.63;2108057;27;46187;-53
2024/02/29 02:55:58;;;;;;;;;6.33;5.67;;;;;14.31;100.00;100892.31;2107863;27;46755;-52
2024/02/29 02:56:58;;;;;;;;;7.00;5.67;;;;;14.33;100.00;100892.25;2108159;27;46424;-49
2024/02/29 02:57:59;;;;;;;;;7.67;7.67;;;;;14.34;100.00;100894.00;2108070;27;46491;-53
2024/02/29 02:58:59;;;;;;;;;6.00;6.00;;;;;14.34;100.00;100896.66;2107808;27;46489;-52
2024/02/29 03:00:00;;;;;;;;;9.00;7.67;;;;;14.33;100.00;100890.44;2108013;27;46910;-49
2024/02/29 03:01:00;;;;;;;;;7.00;7.00;;;;;14.34;100.00;100888.66;2106436;27;46603;-51
2024/02/29 03:02:01;;;;;;;;;6.67;6.67;;;;;14.53;100.00;100887.13;2107780;27;46494;-53
2024/02/29 03:03:01;;;;;;;;;6.67;6.67;;;;;14.56;100.00;100892.34;2107317;27;46622;-51
2024/02/29 03:04:03;;;;;;;;;7.00;7.00;;;;;14.58;100.00;100890.50;2100150;28;46674;-52
2024/02/29 03:05:04;;;;;;;;;7.00;6.00;;;;;14.61;100.00;100884.16;2099356;27;46406;-53
2024/02/29 03:06:05;;;;;;;;;6.50;6.50;;;;;14.62;100.00;100883.28;2107266;27;46605;-53
2024/02/29 03:07:05;;;;;;;;;7.00;6.00;;;;;14.64;100.00;100890.28;2108284;27;46921;-52
2024/02/29 03:08:06;;;;;;;;;6.00;5.67;;;;;14.65;100.00;100889.38;2108120;27;46807;-53
2024/02/29 03:09:07;;;;;;;;;7.33;7.33;;;;;14.67;100.00;100881.28;2107109;27;46454;-51
2024/02/29 03:10:09;;;;;;;;;7.00;6.00;;;;;14.68;100.00;100883.03;2108257;27;46672;-52
2024/02/29 03:11:09;;;;;;;;;8.25;7.25;;;;;14.68;100.00;100875.03;2106907;27;47006;-53
2024/02/29 03:12:10;;;;;;;;;6.00;6.00;;;;;14.63;100.00;100877.88;2106553;27;46673;-51
2024/02/29 03:13:10;;;;;;;;;5.67;5.67;;;;;14.63;100.00;100872.53;2108528;27;46383;-53
2024/02/29 03:14:10;;;;;;;;;8.00;7.00;;;;;14.63;100.00;100879.66;2107195;27;46585;-51
2024/02/29 03:15:11;;;;;;;;;5.00;5.00;;;;;14.64;100.00;100881.41;2107437;27;46517;-49
2024/02/29 03:16:11;;;;;;;;;6.00;6.00;;;;;14.63;100.00;100869.00;2108082;27;46113;-53
2024/02/29 03:17:11;;;;;;;;;6.67;6.67;;;;;14.50;100.00;100867.69;2107894;27;46815;-53
2024/02/29 03:18:12;;;;;;;;;5.33;5.33;;;;;14.42;100.00;100867.91;2105609;27;46390;-49
2024/02/29 03:19:12;;;;;;;;;7.67;7.67;;;;;14.38;100.00;100868.94;2107566;27;46849;-51
2024/02/29 03:20:13;;;;;;;;;6.00;6.00;;;;;14.31;100.00;100857.59;2107744;27;46375;-50
2024/02/29 03:21:14;;;;;;;;;7.00;6.33;;;;;14.30;100.00;100858.53;2107615;27;46419;-51
2024/02/29 03:22:15;;;;;;;;;7.00;7.00;;;;;14.31;100.00;100854.94;2107340;27;46548;-53
2024/02/29 03:23:15;;;;;;;;;6.33;6.33;;;;;14.32;100.00;100855.78;2107191;27;46261;-50
2024/02/29 03:24:15;;;;;;;;;8.00;6.67;;;;;14.42;100.00;100849.22;2108731;27;45039;-50
2024/02/29 03:25:16;;;;;;;;;8.67;6.33;;;;;14.57;100.00;100853.16;2108477;27;46443;-51
2024/02/29 03:26:17;;;;;;;;;7.67;7.00;;;;;14.40;100.00;100843.06;2106503;27;46576;-53
2024/02/29 03:27:18;;;;;;;;;7.00;7.00;;;;;14.37;100.00;100851.19;2108628;27;46539;-50
2024/02/29 03:28:18;;;;;;;;;7.00;7.00;;;;;14.38;100.00;100843.13;2107936;27;46357;-53
2024/02/29 03:29:18;;;;;;;;;6.00;6.00;;;;;14.38;100.00;100842.25;2107537;27;47124;-51
2024/02/29 03:30:19;;;;;;;;;7.67;7.33;;;;;14.43;100.00;100841.16;2108344;27;46618;-53
2024/02/29 03:31:19;;;;;;;;;5.00;5.00;;;;;14.55;100.00;100845.22;2106755;27;46550;-53
2024/02/29 03:32:19;;;;;;;;;10.00;8.00;;;;;14.59;100.00;100830.81;2109540;27;46183;-53
2024/02/29 03:33:20;;;;;;;;;6.00;5.00;;;;;14.43;100.00;100837.59;2112550;27;46679;-54
2024/02/29 03:34:20;;;;;;;;;7.00;7.00;;;;;14.39;100.00;100839.53;2111737;27;46161;-48
2024/02/29 03:35:20;;;;;;;;;7.00;6.00;;;;;14.38;100.00;100837.78;2111982;27;46940;-49
2024/02/29 03:36:21;;;;;;;;;6.00;6.00;;;;;14.37;100.00;100838.72;2109835;27;46368;-50
2024/02/29 03:37:21;;;;;;;;;8.00;8.00;;;;;14.38;100.00;100843.13;2111108;27;46510;-55
2024/02/29 03:38:21;;;;;;;;;7.67;7.00;;;;;14.38;100.00;100832.44;2112744;27;46581;-52
2024/02/29 03:39:21;;;;;;;;;7.00;7.00;;;;;14.39;100.00;100842.19;2111184;27;46687;-53
2024/02/29 03:40:22;;;;;;;;;7.00;7.00;;;;;14.40;100.00;100835.06;2111426;27;46441;-49
2024/02/29 03:41:22;;;;;;;;;7.00;6.67;;;;;14.51;100.00;100835.59;2112631;27;45569;-54
2024/02/29 03:42:22;;;;;;;;;7.00;7.00;;;;;14.59;100.00;100836.16;2093763;28;46726;-53
2024/02/29 03:43:23;;;;;;;;;7.00;6.33;;;;;14.64;100.00;100836.00;2093465;28;46331;-52
2024/02/29 03:44:23;;;;;;;;;8.00;6.67;;;;;14.66;100.00;100834.16;2111933;27;46385;-53
2024/02/29 03:45:24;;;;;;;;;8.00;7.00;;;;;14.66;100.00;100835.00;2111602;27;46592;-53
2024/02/29 03:46:25;;;;;;;;;7.00;7.00;;;;;14.66;100.00;100837.69;2112587;27;46012;-54
2024/02/29 03:47:25;;;;;;;;;6.00;6.00;;;;;14.66;100.00;100834.16;2112301;27;46446;-52
2024/02/29 03:48:26;;;;;;;;;8.33;6.00;;;;;14.68;100.00;100832.28;2111533;27;46323;-53
2024/02/29 03:49:26;;;;;;;;;5.00;5.00;;;;;14.67;100.00;100828.75;2112346;27;46522;-53
2024/02/29 03:50:27;;;;;;;;;7.00;7.00;;;;;14.67;100.00;100826.06;2112427;27;46335;-51
2024/02/29 03:51:27;;;;;;;;;7.67;7.33;;;;;14.66;100.00;100826.13;2111838;27;46843;-54
2024/02/29 03:52:27;;;;;;;;;6.67;6.67;;;;;14.66;100.00;100813.66;2111787;27;45344;-53
2024/02/29 03:53:28;;;;;;;;;6.33;6.33;;;;;14.68;100.00;100829.63;2109468;27;47274;-54
2024/02/29 03:54:28;;;;;;;;;7.00;5.00;;;;;14.67;100.00;100820.72;2112854;27;45977;-54
2024/02/29 03:55:29;;;;;;;;;6.67;6.67;;;;;14.64;100.00;100815.50;2111069;27;46395;-52
2024/02/29 03:56:29;;;;;;;;;7.00;7.00;;;;;14.63;100.00;100812.91;2111488;27;46570;-54
2024/02/29 03:57:29;;;;;;;;;7.67;7.67;;;;;14.61;100.00;100807.63;2112332;27;46388;-53
2024/02/29 03:58:29;;;;;;;;;8.50;7.00;;;;;14.62;100.00;100819.16;2111758;27;46761;-51
2024/02/29 03:59:31;;;;;;;;;7.00;7.00;;;;;14.62;100.00;100811.16;2112554;27;46577;-51
2024/02/29 04:00:31;;;;;;;;;7.75;7.75;;;;;14.65;100.00;100811.03;2111019;27;46473;-50
2024/02/29 04:01:31;;;;;;;;;6.67;6.67;;;;;14.67;100.00;100812.72;2098568;28;46204;-54
2024/02/29 04:02:32;;;;;;;;;7.00;7.00;;;;;14.69;100.00;100810.84;2099937;28;45833;-52
2024/02/29 04:03:32;;;;;;;;;7.00;7.00;;;;;14.71;100.00;100802.78;2111519;27;46311;-54
2024/02/29 04:04:33;;;;;;;;;7.00;7.00;;;;;14.73;100.00;100816.94;2111166;27;48535;-53
2024/02/29 04:05:34;;;;;;;;;8.00;7.00;;;;;14.72;100.00;100810.72;2110900;27;46836;-52
2024/02/29 04:06:34;;;;;;;;;12.00;8.67;;;;;14.72;100.00;100810.72;2110915;27;46274;-50
2024/02/29 04:07:40;;;;;;;;;6.00;6.00;;;;;14.75;100.00;100807.09;2112643;27;45564;-51
2024/02/29 04:08:40;;;;;;;;;10.50;9.50;;;;;14.72;100.00;100804.53;2111539;27;46382;-52
2024/02/29 04:09:41;;;;;;;;;8.67;8.33;;;;;14.74;100.00;100805.38;2109060;27;46364;-50
2024/02/29 04:10:41;;;;;;;;;10.33;8.67;;;;;14.73;100.00;100806.25;2112167;27;46959;-53
2024/02/29 04:11:42;;;;;;;;;7.33;7.33;;;;;14.72;100.00;100800.03;2111001;27;46086;-52
2024/02/29 04:12:42;;;;;;;;;9.00;9.00;;;;;14.67;100.00;100801.16;2111282;27;46279;-50
2024/02/29 04:13:44;;;;;;;;;8.67;8.67;;;;;14.65;100.00;100806.56;2112417;27;46500;-51
2024/02/29 04:14:44;;;;;;;;;8.50;8.50;;;;;14.63;100.00;100794.19;2110533;27;46707;-53
2024/02/29 04:15:44;;;;;;;;;8.00;8.00;;;;;14.63;100.00;100802.22;2112276;27;46356;-52
2024/02/29 04:16:45;;;;;;;;;10.33;8.00;;;;;14.63;100.00;100796.88;2106710;27;46155;-55
2024/02/29 04:17:45;;;;;;;;;7.00;7.00;;;;;14.62;100.00;100801.34;2106696;27;46536;-55
2024/02/29 04:18:45;;;;;;;;;9.67;8.67;;;;;14.63;100.00;100800.41;2112360;27;46953;-51
2024/02/29 04:19:46;;;;;;;;;8.00;7.67;;;;;14.62;100.00;100801.34;2111386;27;46311;-53
2024/02/29 04:20:46;;;;;;;;;7.33;7.00;;;;;14.62;100.00;100790.66;2111732;27;46169;-50
2024/02/29 04:21:46;;;;;;;;;8.00;8.00;;;;;14.61;100.00;100791.59;2111990;27;46592;-53
2024/02/29 04:22:47;;;;;;;;;8.00;8.00;;;;;14.61;100.00;100788.03;2107031;27;47483;-54
2024/02/29 04:23:47;;;;;;;;;7.00;7.00;;;;;14.61;100.00;100793.34;2108004;27;47429;-54
2024/02/29 04:24:47;;;;;;;;;7.67;7.67;;;;;14.60;100.00;100786.28;2111590;27;46194;-49
2024/02/29 04:25:48;;;;;;;;;8.00;8.00;;;;;14.60;100.00;100786.28;2111821;27;46388;-52
2024/02/29 04:26:48;;;;;;;;;8.67;8.67;;;;;14.61;100.00;100782.69;2110514;27;46705;-51
2024/02/29 04:27:49;;;;;;;;;7.00;7.00;;;;;14.63;100.00;100791.53;2092114;28;46492;-50
2024/02/29 04:28:50;;;;;;;;;7.75;7.75;;;;;14.63;100.00;100786.19;2093832;27;45816;-51
2024/02/29 04:29:51;;;;;;;;;8.00;7.50;;;;;14.63;100.00;100783.53;2093549;28;46924;-51
2024/02/29 04:30:51;;;;;;;;;8.00;8.00;;;;;14.59;100.00;100774.72;2093180;28;46625;-52
2024/02/29 04:31:51;;;;;;;;;9.33;9.00;;;;;14.53;100.00;100780.31;2089370;28;46539;-52
2024/02/29 04:32:52;;;;;;;;;8.00;7.00;;;;;14.50;100.00;100782.22;2077358;28;46899;-52
2024/02/29 04:33:52;;;;;;;;;7.33;6.67;;;;;14.47;100.00;100783.19;2094618;28;46104;-50
2024/02/29 04:34:53;;;;;;;;;9.67;9.67;;;;;14.46;100.00;100781.44;2095718;28;46467;-53
2024/02/29 04:35:54;;;;;;;;;8.75;7.50;;;;;14.41;100.00;100789.59;2095587;28;45826;-54
2024/02/29 04:36:54;;;;;;;;;8.33;8.33;;;;;14.39;100.00;100786.13;2095129;28;46335;-51
2024/02/29 04:37:54;;;;;;;;;9.33;9.33;;;;;14.38;100.00;100781.72;2094702;28;46491;-51